createdAt,value
2024-05-09T00:00:43.970Z,5.01
2024-05-09T00:03:12.468Z,5.04
2024-05-09T00:05:44.356Z,5.09
2024-05-09T00:08:12.450Z,5.17
2024-05-09T00:10:41.251Z,5.18
2024-05-09T00:13:10.454Z,5.18
2024-05-09T00:15:38.919Z,5.19
2024-05-09T00:18:09.480Z,5.15
2024-05-09T00:20:40.050Z,5.16
2024-05-09T00:23:12.299Z,5.18
2024-05-09T00:25:40.772Z,5.25
2024-05-09T00:28:08.209Z,5.25
2024-05-09T00:30:37.114Z,5.26
2024-05-09T00:33:07.147Z,5.26
2024-05-09T00:35:36.045Z,5.27
2024-05-09T00:38:04.521Z,5.30
2024-05-09T00:40:40.633Z,5.32
2024-05-09T00:43:13.154Z,5.37
2024-05-09T00:45:41.757Z,5.41
2024-05-09T00:48:12.266Z,5.43
2024-05-09T00:50:42.809Z,5.41
2024-05-09T00:53:15.117Z,5.42
2024-05-09T00:55:43.236Z,5.44
2024-05-09T00:58:12.978Z,5.44
2024-05-09T01:00:41.724Z,5.42
2024-05-09T01:03:12.145Z,5.41
2024-05-09T01:05:41.746Z,5.39
2024-05-09T01:08:10.420Z,5.37
2024-05-09T01:10:38.595Z,5.32
2024-05-09T01:13:07.043Z,5.27
2024-05-09T01:15:35.866Z,5.24
2024-05-09T01:18:13.557Z,5.19
2024-05-09T01:20:44.321Z,5.20
2024-05-09T01:23:15.252Z,5.20
2024-05-09T01:25:45.600Z,5.19
2024-05-09T01:28:13.993Z,5.18
2024-05-09T01:30:41.481Z,5.18
2024-05-09T01:33:10.786Z,5.17
2024-05-09T01:35:42.239Z,5.19
2024-05-09T01:38:13.988Z,5.20
2024-05-09T01:40:41.873Z,5.19
2024-05-09T01:43:10.889Z,5.21
2024-05-09T01:45:42.868Z,5.21
2024-05-09T01:48:11.207Z,5.22
2024-05-09T01:50:42.022Z,5.18
2024-05-09T01:53:15.278Z,5.18
2024-05-09T01:55:43.369Z,5.21
2024-05-09T01:58:11.273Z,5.24
2024-05-09T02:00:42.591Z,5.24
2024-05-09T02:03:15.311Z,5.26
2024-05-09T02:05:50.015Z,5.32
2024-05-09T02:08:22.113Z,5.36
2024-05-09T02:10:50.687Z,5.37
2024-05-09T02:13:18.671Z,5.40
2024-05-09T02:15:46.312Z,5.42
2024-05-09T02:18:14.373Z,5.42
2024-05-09T02:20:43.280Z,5.41
2024-05-09T02:23:11.873Z,5.42
2024-05-09T02:25:39.951Z,5.40
2024-05-09T02:28:07.863Z,5.41
2024-05-09T02:30:39.909Z,5.43
2024-05-09T02:33:11.561Z,5.42
2024-05-09T02:35:41.010Z,5.41
2024-05-09T02:38:10.178Z,5.38
2024-05-09T02:40:39.504Z,5.35
2024-05-09T02:43:09.568Z,5.28
2024-05-09T02:45:38.913Z,5.26
2024-05-09T02:48:07.402Z,5.27
2024-05-09T02:50:39.097Z,5.28
2024-05-09T02:53:08.983Z,5.27
2024-05-09T02:55:40.467Z,5.27
2024-05-09T02:58:08.356Z,5.25
2024-05-09T03:00:39.865Z,5.26
2024-05-09T03:03:12.887Z,5.26
2024-05-09T03:05:46.189Z,5.28
2024-05-09T03:08:14.487Z,5.30
2024-05-09T03:10:42.163Z,5.33
2024-05-09T03:13:15.310Z,5.34
2024-05-09T03:15:45.086Z,5.36
2024-05-09T03:18:13.225Z,5.38
2024-05-09T03:20:41.145Z,5.41
2024-05-09T03:23:09.887Z,5.43
2024-05-09T03:25:38.930Z,5.47
2024-05-09T03:28:07.063Z,5.45
2024-05-09T03:30:40.891Z,5.43
2024-05-09T03:33:15.967Z,5.44
2024-05-09T03:35:44.356Z,5.51
2024-05-09T03:38:11.875Z,5.56
2024-05-09T03:40:48.769Z,5.60
2024-05-09T03:43:17.407Z,5.67
2024-05-09T03:45:45.578Z,5.71
2024-05-09T03:48:13.500Z,5.75
2024-05-09T03:50:41.680Z,5.80
2024-05-09T03:53:13.725Z,5.80
2024-05-09T03:55:41.643Z,5.81
2024-05-09T03:58:09.391Z,5.89
2024-05-09T04:00:39.417Z,6.00
2024-05-09T04:03:10.784Z,6.13
2024-05-09T04:05:41.895Z,6.23
2024-05-09T04:08:11.111Z,6.35
2024-05-09T04:10:39.014Z,6.46
2024-05-09T04:13:06.716Z,6.57
2024-05-09T04:15:34.262Z,6.67
2024-05-09T04:18:02.646Z,6.77
2024-05-09T04:20:38.083Z,6.88
2024-05-09T04:23:11.469Z,7.02
2024-05-09T04:25:42.088Z,7.31
2024-05-09T04:28:09.581Z,7.71
2024-05-09T04:30:40.017Z,8.06
2024-05-09T04:33:11.397Z,8.35
2024-05-09T04:35:42.819Z,8.80
2024-05-09T04:38:11.113Z,8.81
2024-05-09T04:40:38.845Z,8.71
2024-05-09T04:43:07.435Z,8.62
2024-05-09T04:45:35.823Z,8.55
2024-05-09T04:48:03.817Z,8.46
2024-05-09T04:50:36.927Z,8.37
2024-05-09T04:53:11.097Z,8.33
2024-05-09T04:55:40.149Z,8.35
2024-05-09T04:58:12.147Z,8.38
2024-05-09T05:00:41.051Z,8.40
2024-05-09T05:03:13.442Z,8.47
2024-05-09T05:05:45.099Z,8.53
2024-05-09T05:08:14.906Z,8.59
2024-05-09T05:10:43.375Z,8.60
2024-05-09T05:13:21.263Z,8.61
2024-05-09T05:15:52.135Z,8.65
2024-05-09T05:18:20.253Z,8.77
2024-05-09T05:20:48.243Z,8.95
2024-05-09T05:23:18.845Z,9.11
2024-05-09T05:25:48.436Z,9.32
2024-05-09T05:28:16.802Z,9.52
2024-05-09T05:30:44.695Z,9.68
2024-05-09T05:33:16.490Z,9.90
2024-05-09T05:35:44.486Z,10.12
2024-05-09T05:38:12.136Z,10.34
2024-05-09T05:40:40.730Z,10.47
2024-05-09T05:43:10.609Z,10.68
2024-05-09T05:45:39.227Z,10.80
2024-05-09T05:48:07.952Z,11.04
2024-05-09T05:50:37.907Z,11.19
2024-05-09T05:53:10.632Z,11.36
2024-05-09T05:55:40.290Z,11.33
2024-05-09T05:58:11.649Z,11.29
2024-05-09T06:00:41.073Z,11.35
2024-05-09T06:03:10.810Z,11.36
2024-05-09T06:05:44.127Z,11.27
2024-05-09T06:08:12.501Z,11.29
2024-05-09T06:10:41.394Z,11.24
2024-05-09T06:13:13.311Z,11.47
2024-05-09T06:15:42.241Z,11.68
2024-05-09T06:18:11.736Z,11.76
2024-05-09T06:20:43.128Z,11.92
2024-05-09T06:23:11.810Z,12.13
2024-05-09T06:25:39.783Z,12.60
2024-05-09T06:28:07.465Z,12.94
2024-05-09T06:30:40.691Z,13.09
2024-05-09T06:33:12.946Z,13.14
2024-05-09T06:35:42.563Z,13.36
2024-05-09T06:38:10.376Z,13.51
2024-05-09T06:40:43.047Z,13.71
2024-05-09T06:43:17.609Z,13.66
2024-05-09T06:45:50.439Z,13.69
2024-05-09T06:48:20.001Z,13.82
2024-05-09T06:50:48.326Z,13.87
2024-05-09T06:53:17.428Z,14.10
2024-05-09T06:55:45.194Z,14.37
2024-05-09T06:58:12.760Z,14.35
2024-05-09T07:00:41.824Z,14.49
2024-05-09T07:03:12.478Z,14.51
2024-05-09T07:05:41.652Z,14.47
2024-05-09T07:08:09.501Z,14.53
2024-05-09T07:10:39.830Z,14.42
2024-05-09T07:13:11.563Z,14.50
2024-05-09T07:15:39.171Z,14.58
2024-05-09T07:18:10.578Z,14.49
2024-05-09T07:20:39.336Z,14.50
2024-05-09T07:23:10.267Z,14.53
2024-05-09T07:25:38.517Z,14.63
2024-05-09T07:28:06.473Z,14.81
2024-05-09T07:30:35.079Z,15.01
2024-05-09T07:33:04.109Z,15.12
2024-05-09T07:35:31.953Z,15.22
2024-05-09T07:37:59.786Z,15.11
2024-05-09T07:40:34.902Z,15.13
2024-05-09T07:43:05.182Z,14.98
2024-05-09T07:52:23.806Z,14.65
2024-05-09T07:53:39.485Z,14.62
2024-05-09T07:56:11.958Z,14.53
2024-05-09T07:58:40.045Z,14.63
2024-05-09T08:01:07.693Z,14.60
2024-05-09T08:03:38.713Z,14.48
2024-05-09T08:06:06.455Z,14.48
2024-05-09T08:08:35.172Z,14.55
2024-05-09T08:11:03.324Z,14.80
2024-05-09T08:13:31.673Z,14.91
2024-05-09T08:15:59.355Z,15.09
2024-05-09T08:18:27.179Z,15.07
2024-05-09T08:20:54.829Z,14.98
2024-05-09T08:23:24.095Z,14.96
2024-05-09T08:25:53.426Z,15.03
2024-05-09T08:28:21.292Z,15.18
2024-05-09T08:30:49.122Z,15.36
2024-05-09T08:33:16.861Z,15.59
2024-05-09T08:35:44.492Z,15.98
2024-05-09T08:38:12.124Z,16.11
2024-05-09T08:40:39.749Z,16.03
2024-05-09T08:43:12.835Z,15.88
2024-05-09T08:45:44.571Z,15.65
2024-05-09T08:48:15.818Z,15.43
2024-05-09T08:50:45.420Z,15.15
2024-05-09T08:53:15.377Z,15.12
2024-05-09T08:55:44.361Z,15.06
2024-05-09T08:58:20.241Z,15.11
2024-05-09T09:00:48.943Z,15.13
2024-05-09T09:03:23.802Z,15.18
2024-05-09T09:06:06.971Z,15.27
2024-05-09T09:08:34.714Z,15.33
2024-05-09T09:11:02.286Z,15.49
2024-05-09T09:13:29.800Z,15.52
2024-05-09T09:16:00.530Z,15.38
2024-05-09T09:18:29.558Z,15.27
2024-05-09T09:20:57.240Z,15.33
2024-05-09T09:23:24.870Z,15.39
2024-05-09T09:25:52.464Z,15.37
2024-05-09T09:28:23.543Z,15.55
2024-05-09T09:30:51.297Z,15.70
2024-05-09T09:33:19.055Z,15.78
2024-05-09T09:35:47.233Z,15.96
2024-05-09T09:38:18.982Z,16.06
2024-05-09T09:40:50.697Z,16.17
2024-05-09T09:43:22.105Z,16.42
2024-05-09T09:45:50.918Z,16.70
2024-05-09T09:48:20.278Z,16.82
2024-05-09T09:50:48.349Z,16.86
2024-05-09T09:53:17.189Z,16.78
2024-05-09T09:55:47.584Z,16.76
2024-05-09T09:58:17.563Z,16.64
2024-05-09T10:00:45.733Z,16.61
2024-05-09T10:03:13.567Z,16.73
2024-05-09T10:05:44.037Z,16.69
2024-05-09T10:08:14.341Z,16.68
2024-05-09T10:10:46.841Z,16.65
2024-05-09T10:13:14.715Z,16.64
2024-05-09T10:15:46.463Z,16.65
2024-05-09T10:18:15.256Z,16.89
2024-05-09T10:20:46.908Z,17.04
2024-05-09T10:23:27.762Z,17.16
2024-05-09T10:25:59.106Z,17.35
2024-05-09T10:28:35.611Z,17.16
2024-05-09T10:31:12.492Z,16.98
2024-05-09T10:33:41.981Z,17.00
2024-05-09T10:36:19.736Z,17.17
2024-05-09T10:38:47.214Z,17.23
2024-05-09T10:41:14.843Z,17.30
2024-05-09T10:43:42.476Z,17.33
2024-05-09T10:46:12.285Z,17.37
2024-05-09T10:48:41.976Z,17.39
2024-05-09T10:51:09.903Z,17.41
2024-05-09T10:53:44.690Z,17.49
2024-05-09T10:56:14.107Z,17.71
2024-05-09T10:58:41.931Z,17.93
2024-05-09T11:01:10.471Z,18.04
2024-05-09T11:03:39.748Z,18.17
2024-05-09T11:06:08.052Z,18.24
2024-05-09T11:08:36.187Z,18.10
2024-05-09T11:11:08.268Z,17.97
2024-05-09T11:13:37.970Z,17.98
2024-05-09T11:16:07.747Z,17.93
2024-05-09T11:18:39.235Z,17.92
2024-05-09T11:21:13.767Z,18.01
2024-05-09T11:23:41.992Z,18.12
2024-05-09T11:26:11.187Z,18.00
2024-05-09T11:28:38.733Z,18.01
2024-05-09T11:31:10.753Z,18.07
2024-05-09T11:33:48.222Z,18.09
2024-05-09T11:36:16.370Z,18.22
2024-05-09T11:38:44.000Z,18.09
2024-05-09T11:41:17.929Z,18.03
2024-05-09T11:43:45.483Z,18.14
2024-05-09T11:46:13.342Z,18.23
2024-05-09T11:48:41.134Z,18.24
2024-05-09T11:51:08.840Z,18.23
2024-05-09T11:53:36.347Z,18.30
2024-05-09T11:56:04.263Z,18.31
2024-05-09T11:58:37.137Z,18.42
2024-05-09T12:01:04.971Z,18.55
2024-05-09T12:03:32.757Z,18.72
2024-05-09T12:06:00.788Z,18.74
2024-05-09T12:08:28.551Z,18.82
2024-05-09T12:10:56.586Z,18.92
2024-05-09T12:13:24.648Z,19.22
2024-05-09T12:15:52.343Z,19.44
2024-05-09T12:18:19.852Z,19.51
2024-05-09T12:20:47.484Z,19.40
2024-05-09T12:23:15.180Z,19.28
2024-05-09T12:25:42.752Z,19.42
2024-05-09T12:28:10.357Z,19.44
2024-05-09T12:30:41.723Z,19.14
2024-05-09T12:33:14.309Z,18.94
2024-05-09T12:35:44.621Z,18.90
2024-05-09T12:38:17.524Z,18.98
2024-05-09T12:40:45.113Z,19.17
2024-05-09T12:43:12.773Z,19.23
2024-05-09T12:45:40.755Z,19.45
2024-05-09T12:48:12.550Z,19.84
2024-05-09T12:50:41.765Z,19.98
2024-05-09T12:53:09.885Z,19.66
2024-05-09T12:55:45.113Z,19.40
2024-05-09T12:58:22.841Z,19.24
2024-05-09T13:00:52.717Z,18.94
2024-05-09T13:03:20.963Z,18.79
2024-05-09T13:05:50.193Z,18.73
2024-05-09T13:08:17.964Z,18.77
2024-05-09T13:10:45.643Z,18.95
2024-05-09T13:13:13.672Z,19.12
2024-05-09T13:15:41.248Z,19.20
2024-05-09T13:18:09.480Z,19.08
2024-05-09T13:20:37.557Z,18.87
2024-05-09T13:23:07.310Z,18.84
2024-05-09T13:25:36.086Z,19.09
2024-05-09T13:28:04.854Z,19.38
2024-05-09T13:30:39.993Z,19.47
2024-05-09T13:33:11.905Z,19.39
2024-05-09T13:35:46.644Z,19.34
2024-05-09T13:38:17.728Z,19.30
2024-05-09T13:40:45.575Z,19.38
2024-05-09T13:43:13.718Z,19.52
2024-05-09T13:45:41.488Z,19.52
2024-05-09T13:48:10.541Z,19.30
2024-05-09T13:50:38.259Z,19.18
2024-05-09T13:53:07.614Z,19.08
2024-05-09T13:55:39.301Z,19.08
2024-05-09T13:58:08.481Z,19.20
2024-05-09T14:00:44.694Z,19.26
2024-05-09T14:03:18.290Z,19.27
2024-05-09T14:05:47.962Z,19.17
2024-05-09T14:08:18.167Z,19.12
2024-05-09T14:10:49.619Z,19.15
2024-05-09T14:13:17.475Z,19.17
2024-05-09T14:15:46.594Z,19.21
2024-05-09T14:18:14.740Z,19.25
2024-05-09T14:20:43.348Z,19.24
2024-05-09T14:23:10.958Z,19.30
2024-05-09T14:25:42.688Z,19.34
2024-05-09T14:28:12.936Z,19.36
2024-05-09T14:30:41.509Z,19.29
2024-05-09T14:33:09.687Z,19.35
2024-05-09T14:35:38.986Z,19.35
2024-05-09T14:38:07.729Z,19.25
2024-05-09T14:40:41.983Z,19.21
2024-05-09T14:43:15.876Z,19.26
2024-05-09T14:45:44.857Z,19.30
2024-05-09T14:48:15.421Z,19.27
2024-05-09T14:50:43.563Z,19.20
2024-05-09T14:53:12.749Z,19.06
2024-05-09T14:55:42.612Z,19.04
2024-05-09T14:58:11.679Z,19.01
2024-05-09T15:00:47.913Z,19.01
2024-05-09T15:03:19.810Z,19.12
2024-05-09T15:05:48.490Z,19.13
2024-05-09T15:08:18.228Z,19.12
2024-05-09T15:10:46.893Z,19.11
2024-05-09T15:13:16.548Z,19.15
2024-05-09T15:15:44.908Z,19.05
2024-05-09T15:18:13.892Z,18.87
2024-05-09T15:20:42.324Z,18.82
2024-05-09T15:23:10.065Z,18.87
2024-05-09T15:25:37.602Z,18.93
2024-05-09T15:28:08.168Z,18.90
2024-05-09T15:30:36.815Z,18.86
2024-05-09T15:33:06.062Z,18.76
2024-05-09T15:35:34.950Z,18.80
2024-05-09T15:38:03.475Z,18.72
2024-05-09T15:40:38.529Z,18.61
2024-05-09T15:43:10.208Z,18.48
2024-05-09T15:45:40.745Z,18.35
2024-05-09T15:48:09.721Z,18.23
2024-05-09T15:50:40.961Z,18.11
2024-05-09T15:53:12.207Z,18.03
2024-05-09T15:55:40.490Z,17.93
2024-05-09T15:58:08.480Z,17.78
2024-05-09T16:00:40.108Z,17.81
2024-05-09T16:03:14.575Z,17.81
2024-05-09T16:05:46.724Z,17.77
2024-05-09T16:08:15.597Z,17.70
2024-05-09T16:10:46.293Z,17.67
2024-05-09T16:13:15.940Z,17.60
2024-05-09T16:15:44.271Z,17.52
2024-05-09T16:18:12.499Z,17.49
2024-05-09T16:20:42.309Z,17.44
2024-05-09T16:23:11.636Z,17.44
2024-05-09T16:25:45.660Z,17.28
2024-05-09T16:28:13.286Z,17.17
2024-05-09T16:30:41.084Z,17.12
2024-05-09T16:33:09.608Z,17.06
2024-05-09T16:35:40.442Z,16.98
2024-05-09T16:38:08.033Z,16.87
2024-05-09T16:40:39.473Z,16.75
2024-05-09T16:43:14.633Z,16.65
2024-05-09T16:45:45.039Z,16.59
2024-05-09T16:48:14.657Z,16.56
2024-05-09T16:50:42.466Z,16.54
2024-05-09T16:53:10.002Z,16.47
2024-05-09T16:55:37.653Z,16.44
2024-05-09T16:58:07.161Z,16.36
2024-05-09T17:00:41.084Z,16.27
2024-05-09T17:03:13.067Z,16.20
2024-05-09T17:05:42.399Z,16.12
2024-05-09T17:08:10.543Z,16.04
2024-05-09T17:10:38.156Z,15.97
2024-05-09T17:13:07.561Z,15.87
2024-05-09T17:15:37.246Z,15.77
2024-05-09T17:18:07.239Z,15.68
2024-05-09T17:20:37.036Z,15.59
2024-05-09T17:23:13.909Z,15.51
2024-05-09T17:25:42.516Z,15.45
2024-05-09T17:28:11.125Z,15.35
2024-05-09T17:30:40.761Z,15.29
2024-05-09T17:33:10.901Z,15.22
2024-05-09T17:35:39.523Z,15.18
2024-05-09T17:38:07.499Z,15.16
2024-05-09T17:40:37.351Z,15.09
2024-05-09T17:43:09.092Z,15.06
2024-05-09T17:45:39.848Z,14.99
2024-05-09T17:48:10.641Z,14.92
2024-05-09T17:50:39.871Z,14.85
2024-05-09T17:53:08.586Z,14.77
2024-05-09T17:55:36.820Z,14.66
2024-05-09T17:58:05.358Z,14.60
2024-05-09T18:00:39.423Z,14.52
2024-05-09T18:03:13.339Z,14.45
2024-05-09T18:05:43.100Z,14.32
2024-05-09T18:08:11.790Z,14.25
2024-05-09T18:10:41.391Z,14.14
2024-05-09T18:13:10.114Z,14.06
2024-05-09T18:15:38.345Z,14.01
2024-05-09T18:18:06.956Z,13.92
2024-05-09T18:20:42.197Z,13.83
2024-05-09T18:23:15.907Z,13.74
2024-05-09T18:25:44.898Z,13.71
2024-05-09T18:28:12.638Z,13.60
2024-05-09T18:30:40.774Z,13.51
2024-05-09T18:33:11.567Z,13.41
2024-05-09T18:35:41.967Z,13.32
2024-05-09T18:38:10.012Z,13.24
2024-05-09T18:40:39.727Z,13.16
2024-05-09T18:43:09.320Z,13.09
2024-05-09T18:45:38.580Z,13.02
2024-05-09T18:48:08.369Z,12.96
2024-05-09T18:50:40.003Z,12.92
2024-05-09T18:53:11.585Z,12.84
2024-05-09T18:55:40.918Z,12.78
2024-05-09T18:58:08.733Z,12.73
2024-05-09T19:00:39.947Z,12.67
2024-05-09T19:03:13.479Z,12.58
2024-05-09T19:05:45.366Z,12.53
2024-05-09T19:08:21.394Z,12.46
2024-05-09T19:10:50.998Z,12.38
2024-05-09T19:13:19.504Z,12.31
2024-05-09T19:15:48.416Z,12.29
2024-05-09T19:18:17.989Z,12.25
2024-05-09T19:20:46.594Z,12.20
2024-05-09T19:23:14.894Z,12.15
2024-05-09T19:25:43.674Z,12.11
2024-05-09T19:28:13.223Z,12.11
2024-05-09T19:30:42.948Z,12.04
2024-05-09T19:33:13.987Z,11.98
2024-05-09T19:35:43.737Z,11.91
2024-05-09T19:38:12.310Z,11.83
2024-05-09T19:40:40.904Z,11.74
2024-05-09T19:43:10.114Z,11.63
2024-05-09T19:45:38.511Z,11.52
2024-05-09T19:48:07.296Z,11.44
2024-05-09T19:50:42.063Z,11.35
2024-05-09T19:53:13.941Z,11.26
2024-05-09T19:55:43.097Z,11.13
2024-05-09T19:58:13.680Z,11.07
2024-05-09T20:00:43.929Z,10.98
2024-05-09T20:03:15.758Z,10.89
2024-05-09T20:05:46.192Z,10.78
2024-05-09T20:08:14.877Z,10.69
2024-05-09T20:10:43.327Z,10.62
2024-05-09T20:13:11.361Z,10.57
2024-05-09T20:15:40.587Z,10.57
2024-05-09T20:18:09.208Z,10.54
2024-05-09T20:20:41.512Z,10.46
2024-05-09T20:23:15.996Z,10.45
2024-05-09T20:25:44.683Z,10.43
2024-05-09T20:28:14.233Z,10.41
2024-05-09T20:30:43.330Z,10.36
2024-05-09T20:33:12.873Z,10.34
2024-05-09T20:35:41.125Z,10.33
2024-05-09T20:38:09.871Z,10.28
2024-05-09T20:40:39.714Z,10.25
2024-05-09T20:43:11.514Z,10.21
2024-05-09T20:45:40.058Z,10.19
2024-05-09T20:48:09.196Z,10.16
2024-05-09T20:50:40.727Z,10.16
2024-05-09T20:53:14.453Z,10.13
2024-05-09T20:55:44.405Z,10.10
2024-05-09T20:58:12.826Z,10.08
2024-05-09T21:00:43.875Z,10.07
2024-05-09T21:03:16.130Z,10.04
2024-05-09T21:05:44.982Z,10.01
2024-05-09T21:08:12.630Z,9.98
2024-05-09T21:10:40.151Z,9.94
2024-05-09T21:13:08.131Z,9.93
2024-05-09T21:15:36.334Z,9.89
2024-05-09T21:18:05.015Z,9.89
2024-05-09T21:20:35.279Z,9.85
2024-05-09T21:23:03.707Z,9.85
2024-05-09T21:25:31.838Z,9.87
2024-05-09T21:27:59.700Z,9.88
2024-05-09T21:30:33.209Z,9.87
2024-05-09T21:33:10.225Z,9.83
2024-05-09T21:35:39.692Z,9.80
2024-05-09T21:38:08.002Z,9.76
2024-05-09T21:40:37.050Z,9.73
2024-05-09T21:43:07.274Z,9.74
2024-05-09T21:45:35.882Z,9.75
2024-05-09T21:48:04.874Z,9.79
2024-05-09T21:50:39.348Z,9.82
2024-05-09T21:53:09.624Z,9.85
2024-05-09T21:55:37.259Z,9.89
2024-05-09T21:58:05.197Z,9.92
2024-05-09T22:00:37.814Z,9.94
2024-05-09T22:03:11.221Z,9.98
2024-05-09T22:05:42.593Z,9.99
2024-05-09T22:08:10.151Z,10.01
2024-05-09T22:10:37.709Z,10.03
2024-05-09T22:13:06.902Z,10.05
2024-05-09T22:15:37.414Z,10.07
2024-05-09T22:18:06.651Z,10.07
2024-05-09T22:20:38.704Z,10.08
2024-05-09T22:23:08.606Z,10.08
2024-05-09T22:25:37.297Z,10.09
2024-05-09T22:28:05.549Z,10.10
2024-05-09T22:30:37.347Z,10.12
2024-05-09T22:33:09.329Z,10.13
2024-05-09T22:35:38.271Z,10.13
2024-05-09T22:38:06.167Z,10.12
2024-05-09T22:40:43.228Z,10.10
2024-05-09T22:43:24.203Z,10.13
2024-05-09T22:45:55.930Z,10.14
2024-05-09T22:48:24.868Z,10.13
2024-05-09T22:50:53.710Z,10.14
2024-05-09T22:53:25.527Z,10.14
2024-05-09T22:55:53.494Z,10.15
2024-05-09T22:58:21.771Z,10.14
2024-05-09T23:00:49.493Z,10.12
2024-05-09T23:03:19.006Z,10.12
2024-05-09T23:05:46.621Z,10.12
2024-05-09T23:08:14.161Z,10.10
2024-05-09T23:10:41.782Z,10.10
2024-05-09T23:13:09.419Z,10.09
2024-05-09T23:15:38.922Z,10.10
2024-05-09T23:18:07.313Z,10.11
2024-05-09T23:20:38.574Z,10.12
2024-05-09T23:23:11.854Z,10.14
2024-05-09T23:25:41.983Z,10.17
2024-05-09T23:28:10.596Z,10.18
2024-05-09T23:30:40.423Z,10.20
2024-05-09T23:33:13.595Z,10.22
2024-05-09T23:35:42.396Z,10.25
2024-05-09T23:38:09.920Z,10.27
2024-05-09T23:40:40.188Z,10.30
2024-05-09T23:43:13.185Z,10.35
2024-05-09T23:45:41.665Z,10.39
2024-05-09T23:48:10.164Z,10.42
2024-05-09T23:50:39.583Z,10.43
2024-05-09T23:53:09.372Z,10.46
2024-05-09T23:55:38.208Z,10.51
2024-05-09T23:58:06.720Z,10.53
